Time;durP1;ratioP1;P1;durP2;ratioP2;P2;SDS_P1;SDS_P2;PMS_P1;PMS_P2;Temp;Humidity;BMP_temperature;BMP_pressure;BME280_temperature;BME280_humidity;BME280_pressure;Samples;Min_cycle;Max_cycle;Signal;HPM_P1;HPM_P2
2023/05/22 00:00:12;;;;;;;17.25;10.75;;;;;;;19.28;65.84;98390.44;5091672;28;20099;-45
2023/05/22 00:02:41;;;;;;;15.07;11.70;;;;;;;19.01;67.00;98388.00;5090437;28;20062;-45
2023/05/22 00:05:11;;;;;;;22.25;11.95;;;;;;;18.91;68.00;98388.75;5091990;28;20055;-45
2023/05/22 00:07:38;;;;;;;11.77;10.57;;;;;;;19.11;67.55;98388.00;5095901;28;20516;-45
2023/05/22 00:10:05;;;;;;;13.23;11.82;;;;;;;19.21;67.10;98397.88;5094305;28;20032;-45
2023/05/22 00:12:31;;;;;;;12.75;11.00;;;;;;;19.16;67.21;98396.03;5095712;28;20051;-44
2023/05/22 00:14:57;;;;;;;15.15;10.93;;;;;;;19.07;67.56;98390.41;5095543;28;20485;-45
2023/05/22 00:17:25;;;;;;;26.98;15.73;;;;;;;19.04;67.83;98390.94;5095502;28;20114;-45
2023/05/22 00:19:54;;;;;;;22.45;12.32;;;;;;;19.06;67.63;98386.16;5095503;28;20024;-45
2023/05/22 00:22:20;;;;;;;20.42;13.45;;;;;;;19.07;67.80;98394.91;5094328;28;20036;-45
2023/05/22 00:24:46;;;;;;;17.35;11.30;;;;;;;18.98;68.03;98393.84;5095460;28;20024;-45
2023/05/22 00:27:12;;;;;;;24.30;13.57;;;;;;;18.88;68.20;98386.66;5095401;28;20081;-45
2023/05/22 00:29:37;;;;;;;23.35;11.73;;;;;;;18.88;68.51;98381.31;5095271;28;20031;-45
2023/05/22 00:32:04;;;;;;;13.50;10.50;;;;;;;18.91;68.20;98386.94;5093962;28;20028;-45
2023/05/22 00:34:30;;;;;;;10.57;9.48;;;;;;;18.97;68.31;98382.41;5095311;28;20024;-45
2023/05/22 00:36:56;;;;;;;14.30;9.77;;;;;;;19.05;67.77;98386.41;5095180;28;20032;-45
2023/05/22 00:39:22;;;;;;;19.30;9.95;;;;;;;19.01;68.24;98386.13;5093867;28;20103;-45
2023/05/22 00:41:47;;;;;;;18.02;10.40;;;;;;;19.06;68.15;98385.34;5094129;28;20032;-45
2023/05/22 00:44:13;;;;;;;12.63;10.23;;;;;;;18.93;67.56;98389.31;5093803;28;20460;-45
2023/05/22 00:46:39;;;;;;;20.63;10.18;;;;;;;18.81;68.80;98381.56;5095017;28;20036;-45
2023/05/22 00:49:05;;;;;;;13.63;10.43;;;;;;;19.00;68.39;98394.38;5094873;28;20077;-45
2023/05/22 00:51:31;;;;;;;71.88;64.43;;;;;;;19.09;68.27;98384.81;5093586;28;20032;-45
2023/05/22 00:53:57;;;;;;;19.95;13.23;;;;;;;19.06;67.62;98383.50;5094909;28;20039;-45
2023/05/22 00:56:23;;;;;;;15.10;11.20;;;;;;;19.05;67.74;98386.41;5094800;28;20074;-45
2023/05/22 00:58:49;;;;;;;18.63;13.55;;;;;;;18.90;68.15;98385.31;5094830;28;20031;-45
2023/05/22 01:01:16;;;;;;;19.52;11.43;;;;;;;18.72;68.12;98388.41;5094708;28;20516;-45
2023/05/22 01:03:43;;;;;;;15.90;10.85;;;;;;;18.49;69.38;98390.47;5093809;28;20103;-45
2023/05/22 01:06:20;;;;;;;11.48;10.38;;;;;;;18.56;69.55;98393.66;5094672;28;20035;-45
2023/05/22 01:08:46;;;;;;;18.90;12.10;;;;;;;18.55;69.23;98388.59;5094539;28;20088;-45
2023/05/22 01:11:18;;;;;;;18.17;10.60;;;;;;;18.60;69.44;98398.47;5094597;28;20032;-45
2023/05/22 01:14:03;;;;;;;15.00;10.65;;;;;;;18.63;69.17;98398.75;5094648;28;20032;-45
2023/05/22 01:16:45;;;;;;;12.73;11.40;;;;;;;18.49;69.56;98400.28;5094627;28;20031;-45
2023/05/22 01:19:32;;;;;;;20.83;11.93;;;;;;;18.32;70.35;98395.16;5093692;28;20493;-45
2023/05/22 01:22:06;;;;;;;23.17;11.43;;;;;;;18.19;71.16;98395.59;5094395;28;20040;-45
2023/05/22 01:24:40;;;;;;;31.58;24.88;;;;;;;18.21;71.10;98399.63;5094426;28;20028;-45
2023/05/22 01:27:40;;;;;;;18.15;15.77;;;;;;;18.10;71.18;98396.09;5094281;28;20036;-45
2023/05/22 01:30:18;;;;;;;21.48;15.95;;;;;;;17.96;71.63;98395.72;5063457;28;20052;-45
2023/05/22 01:32:47;;;;;;;16.30;13.70;;;;;;;17.88;72.08;98395.41;5092965;28;20458;-44
2023/05/22 01:35:16;;;;;;;15.00;11.77;;;;;;;17.77;72.38;98386.56;5094095;28;20020;-45
2023/05/22 01:37:43;;;;;;;27.88;21.42;;;;;;;17.62;73.09;98387.22;5094067;28;20024;-45
2023/05/22 01:40:10;;;;;;;24.85;14.00;;;;;;;17.57;73.64;98380.03;5092685;28;20028;-45
2023/05/22 01:42:39;;;;;;;20.88;12.85;;;;;;;17.83;73.45;98387.38;5092618;28;20035;-45
2023/05/22 01:45:08;;;;;;;13.27;11.27;;;;;;;17.89;72.35;98391.72;5093712;28;20059;-45
2023/05/22 01:47:34;;;;;;;17.25;11.50;;;;;;;17.94;72.14;98391.75;5092888;28;20027;-45
2023/05/22 01:50:00;;;;;;;13.57;11.73;;;;;;;17.99;71.62;98396.28;5092890;28;20385;-45
2023/05/22 01:52:47;;;;;;;19.98;12.25;;;;;;;17.94;71.40;98387.22;5092761;28;20119;-45
2023/05/22 01:55:22;;;;;;;21.15;12.48;;;;;;;18.04;71.25;98383.84;5093773;28;20085;-45
2023/05/22 01:58:01;;;;;;;18.83;11.03;;;;;;;18.18;71.20;98389.50;5093981;28;20038;-45
2023/05/22 02:00:29;;;;;;;20.88;11.85;;;;;;;18.39;70.03;98386.94;5093616;28;20024;-45
2023/05/22 02:03:00;;;;;;;13.15;10.25;;;;;;;18.45;69.63;98388.56;5093611;28;20039;-45
2023/05/22 02:05:28;;;;;;;13.07;10.77;;;;;;;18.40;69.02;98384.03;5093584;28;20466;-45
2023/05/22 02:07:57;;;;;;;17.90;10.80;;;;;;;18.38;69.22;98383.50;5093539;28;20444;-45
2023/05/22 02:10:25;;;;;;;17.95;11.15;;;;;;;18.21;69.43;98388.19;5092067;28;20055;-45
2023/05/22 02:12:51;;;;;;;12.30;10.55;;;;;;;17.98;70.16;98389.38;5093426;28;20023;-45
2023/05/22 02:15:17;;;;;;;13.60;11.05;;;;;;;17.87;70.84;98386.66;5092329;28;20111;-45
2023/05/22 02:17:44;;;;;;;15.98;10.80;;;;;;;17.91;70.86;98392.25;5093323;28;20059;-45
2023/05/22 02:20:14;;;;;;;16.58;11.70;;;;;;;17.97;70.73;98396.56;5091917;28;20020;-45
2023/05/22 02:22:45;;;;;;;25.00;12.32;;;;;;;17.76;70.49;98393.69;5093165;28;20028;-45
2023/05/22 02:25:15;;;;;;;17.58;11.07;;;;;;;17.54;71.70;98385.03;5092118;28;20027;-45
2023/05/22 02:27:46;;;;;;;13.25;11.93;;;;;;;17.52;71.57;98387.94;5091813;28;20020;-45
2023/05/22 02:30:13;;;;;;;16.00;11.52;;;;;;;17.41;72.03;98396.09;5092905;28;20052;-45
2023/05/22 02:32:40;;;;;;;16.90;11.90;;;;;;;17.35;72.60;98392.56;5093047;28;20236;-45
2023/05/22 02:35:06;;;;;;;17.58;11.60;;;;;;;17.25;72.82;98392.50;5092986;28;20111;-45
2023/05/22 02:37:32;;;;;;;13.30;11.95;;;;;;;17.14;72.87;98394.22;5091641;28;20558;-45
2023/05/22 02:39:58;;;;;;;21.52;11.63;;;;;;;16.91;73.68;98387.38;5091512;28;20028;-47
2023/05/22 02:42:24;;;;;;;14.80;12.45;;;;;;;16.92;74.02;98391.59;5091539;28;20042;-47
2023/05/22 02:44:50;;;;;;;14.32;12.15;;;;;;;16.99;74.06;98394.88;5092638;28;20536;-47
2023/05/22 02:47:15;;;;;;;18.90;12.85;;;;;;;16.99;73.76;98391.44;5091432;28;20024;-47
2023/05/22 02:49:41;;;;;;;17.98;12.27;;;;;;;16.95;73.79;98391.91;5092895;28;20543;-46
2023/05/22 02:52:07;;;;;;;13.15;11.60;;;;;;;16.87;73.99;98391.56;5092875;28;20464;-46
2023/05/22 02:54:32;;;;;;;19.15;12.68;;;;;;;16.74;74.02;98393.53;5092592;28;20040;-47
2023/05/22 02:56:58;;;;;;;14.38;12.98;;;;;;;16.64;74.81;98389.94;5091257;28;20028;-46
2023/05/22 02:59:24;;;;;;;16.77;12.68;;;;;;;16.43;74.88;98389.69;5092517;28;20088;-47
2023/05/22 03:01:50;;;;;;;15.45;12.45;;;;;;;16.49;76.25;98382.59;5092358;28;20129;-46
2023/05/22 03:04:16;;;;;;;20.23;13.02;;;;;;;16.63;75.28;98383.03;5092489;28;20027;-47
2023/05/22 03:06:44;;;;;;;14.45;13.00;;;;;;;16.51;75.56;98383.97;5092379;28;20034;-47
2023/05/22 03:09:10;;;;;;;17.20;12.32;;;;;;;16.47;75.49;98380.19;5092280;28;20028;-47
2023/05/22 03:11:35;;;;;;;16.13;13.27;;;;;;;16.33;75.63;98382.41;5092618;28;20034;-47
2023/05/22 03:14:01;;;;;;;15.40;13.05;;;;;;;16.17;76.18;98378.75;5092336;28;20386;-47
2023/05/22 03:16:27;;;;;;;19.58;13.35;;;;;;;16.15;76.59;98374.75;5092500;28;20051;-46
2023/05/22 03:19:09;;;;;;;20.42;14.95;;;;;;;16.04;76.46;98383.63;5092248;28;20028;-46
2023/05/22 03:21:35;;;;;;;29.58;13.88;;;;;;;16.10;77.49;98377.34;5090828;28;20035;-46
2023/05/22 03:24:01;;;;;;;16.23;12.40;;;;;;;16.35;76.87;98376.88;5090846;28;20028;-47
2023/05/22 03:26:27;;;;;;;13.80;12.00;;;;;;;16.47;75.68;98380.19;5092310;28;20546;-47
2023/05/22 03:28:53;;;;;;;18.98;12.23;;;;;;;16.45;75.62;98382.28;5091973;28;20070;-46
2023/05/22 03:31:19;;;;;;;16.60;12.43;;;;;;;16.51;75.10;98383.16;5090923;28;20031;-47
2023/05/22 03:33:44;;;;;;;16.52;12.57;;;;;;;16.43;74.93;98384.38;5092291;28;20033;-47
2023/05/22 03:36:10;;;;;;;17.42;13.27;;;;;;;16.46;74.32;98388.38;5091990;28;20020;-47
2023/05/22 03:38:36;;;;;;;20.27;14.30;;;;;;;16.38;75.04;98394.94;5090697;28;20027;-47
2023/05/22 03:41:02;;;;;;;18.75;12.88;;;;;;;16.43;75.00;98389.69;5091412;28;20027;-47
2023/05/22 03:43:27;;;;;;;15.30;12.90;;;;;;;16.42;74.66;98396.03;5092159;28;20028;-47
2023/05/22 03:45:53;;;;;;;13.32;11.93;;;;;;;16.42;74.60;98396.03;5090393;28;20079;-47
2023/05/22 03:48:20;;;;;;;17.38;12.85;;;;;;;16.45;74.76;98400.84;5090584;28;20118;-47
2023/05/22 03:50:45;;;;;;;24.90;14.45;;;;;;;16.39;74.23;98399.16;5091768;28;20032;-47
2023/05/22 03:53:11;;;;;;;16.20;13.57;;;;;;;16.33;74.56;98397.50;5091807;28;20039;-47
2023/05/22 03:55:36;;;;;;;19.13;13.45;;;;;;;16.12;74.97;98401.72;5090474;28;20111;-47
2023/05/22 03:58:02;;;;;;;14.90;13.07;;;;;;;16.12;76.17;98397.22;5090452;28;20470;-47
2023/05/22 04:00:28;;;;;;;22.65;15.13;;;;;;;16.16;75.81;98403.63;5091721;28;20474;-47
2023/05/22 04:02:57;;;;;;;22.92;12.68;;;;;;;16.24;75.46;98398.94;5091723;28;20035;-47
2023/05/22 04:05:23;;;;;;;16.30;12.48;;;;;;;16.40;75.22;98395.50;5091657;28;20085;-47
2023/05/22 04:07:49;;;;;;;16.60;12.40;;;;;;;16.51;74.53;98405.16;5090394;28;20463;-47
2023/05/22 04:10:14;;;;;;;20.23;13.25;;;;;;;16.43;73.53;98402.94;5091580;28;20506;-46
2023/05/22 04:12:40;;;;;;;17.23;13.27;;;;;;;16.16;73.92;98402.84;5107321;28;20390;-47
2023/05/22 04:15:07;;;;;;;16.92;13.32;;;;;;;15.92;75.25;98403.03;5091591;28;20073;-46
2023/05/22 04:17:37;;;;;;;17.05;13.23;;;;;;;15.89;76.51;98402.69;5091661;28;20034;-47
2023/05/22 04:20:04;;;;;;;19.65;13.15;;;;;;;16.21;75.98;98397.59;5091850;28;20050;-47
2023/05/22 04:22:32;;;;;;;22.08;11.80;;;;;;;16.57;74.58;98401.50;5090352;28;20401;-47
2023/05/22 04:24:57;;;;;;;15.10;11.85;;;;;;;16.71;73.04;98401.94;5091459;28;20028;-47
2023/05/22 04:27:23;;;;;;;22.08;12.90;;;;;;;16.65;72.16;98397.63;5091732;28;20028;-47
2023/05/22 04:29:50;;;;;;;17.98;13.27;;;;;;;16.42;73.02;98405.81;5091463;28;20149;-47
2023/05/22 04:32:17;;;;;;;14.00;12.73;;;;;;;16.23;73.34;98400.81;5091484;28;20438;-47
2023/05/22 04:34:48;;;;;;;15.43;13.80;;;;;;;16.13;73.88;98403.31;5091437;28;20486;-47
2023/05/22 04:37:17;;;;;;;18.13;14.00;;;;;;;16.10;74.52;98401.16;5091641;28;20450;-46
2023/05/22 04:39:44;;;;;;;23.15;15.55;;;;;;;16.33;74.03;98403.59;5091400;28;20451;-47
2023/05/22 04:42:13;;;;;;;16.05;14.35;;;;;;;16.40;74.11;98395.50;5091300;28;20031;-46
2023/05/22 04:44:40;;;;;;;18.45;13.23;;;;;;;16.48;73.64;98402.19;5091130;28;20063;-47
2023/05/22 04:47:10;;;;;;;15.30;12.85;;;;;;;16.45;73.06;98408.78;5091864;28;20074;-46
2023/05/22 04:49:41;;;;;;;17.05;14.02;;;;;;;16.37;73.22;98402.06;5091226;28;20028;-47
2023/05/22 04:52:06;;;;;;;14.52;12.95;;;;;;;16.42;73.17;98404.00;5089947;28;20024;-47
2023/05/22 04:54:33;;;;;;;14.68;12.07;;;;;;;16.58;73.48;98410.28;5094885;28;20077;-46
2023/05/22 04:57:01;;;;;;;14.48;13.05;;;;;;;17.11;71.88;98405.34;5094847;28;20032;-46
2023/05/22 04:59:27;;;;;;;26.40;12.50;;;;;;;17.41;70.95;98406.69;5093495;28;20041;-47
2023/05/22 05:01:53;;;;;;;16.67;11.43;;;;;;;17.85;67.94;98414.50;5093438;28;20111;-46
2023/05/22 05:04:19;;;;;;;15.13;12.45;;;;;;;18.06;66.46;98415.44;5094839;28;20028;-47
2023/05/22 05:06:45;;;;;;;15.05;12.27;;;;;;;18.38;65.27;98420.69;5094585;28;20039;-46
2023/05/22 05:09:11;;;;;;;13.35;12.05;;;;;;;18.90;64.51;98421.75;5094645;28;20074;-47
2023/05/22 05:11:36;;;;;;;14.73;12.05;;;;;;;19.29;62.17;98422.09;5093422;28;20501;-47
2023/05/22 05:14:02;;;;;;;18.30;12.32;;;;;;;19.37;61.62;98418.13;5093260;28;20482;-46
2023/05/22 05:16:28;;;;;;;21.17;12.60;;;;;;;19.75;61.05;98416.84;5093208;28;20120;-47
2023/05/22 05:18:54;;;;;;;15.45;11.73;;;;;;;20.36;59.32;98415.16;5094488;28;20020;-47
2023/05/22 05:21:20;;;;;;;17.60;12.65;;;;;;;20.99;57.15;98414.69;5094463;28;20024;-47
2023/05/22 05:23:46;;;;;;;12.57;11.13;;;;;;;21.48;56.11;98416.53;5093056;28;20036;-45
2023/05/22 05:26:12;;;;;;;16.45;11.32;;;;;;;21.77;54.36;98415.75;5094361;28;20028;-45
2023/05/22 05:28:38;;;;;;;18.00;11.10;;;;;;;22.01;53.99;98417.69;5094206;28;20027;-45
2023/05/22 05:31:04;;;;;;;18.63;10.68;;;;;;;22.82;52.38;98413.38;5094262;28;20103;-45
2023/05/22 05:33:29;;;;;;;22.67;11.68;;;;;;;23.52;50.26;98414.53;5094216;28;20028;-45
2023/05/22 05:35:55;;;;;;;19.85;10.50;;;;;;;24.44;47.79;98412.16;5094155;28;20405;-45
2023/05/22 05:38:21;;;;;;;15.90;10.70;;;;;;;25.22;45.79;98401.47;5094069;28;20056;-45
2023/05/22 05:40:47;;;;;;;15.65;10.70;;;;;;;25.82;43.51;98401.09;5092738;28;20024;-45
2023/05/22 05:43:14;;;;;;;11.55;10.45;;;;;;;26.25;43.10;98400.53;5093976;28;20111;-45
2023/05/22 05:45:40;;;;;;;13.82;9.80;;;;;;;26.01;42.23;98406.28;5092442;28;20079;-45
2023/05/22 05:48:07;;;;;;;16.23;11.20;;;;;;;25.97;43.19;98404.50;5092643;28;20032;-45
2023/05/22 05:50:32;;;;;;;18.05;10.48;;;;;;;26.60;41.92;98408.75;5093693;28;20024;-45
2023/05/22 05:52:58;;;;;;;15.13;10.57;;;;;;;27.01;40.09;98404.06;5093859;28;20111;-45
2023/05/22 05:55:24;;;;;;;14.57;10.85;;;;;;;26.82;40.54;98410.56;5092455;28;20086;-44
2023/05/22 05:57:51;;;;;;;12.25;10.98;;;;;;;26.89;40.10;98410.84;5093764;28;20493;-45
2023/05/22 06:00:17;;;;;;;14.45;12.43;;;;;;;26.70;40.43;98405.78;5093677;28;20024;-44
2023/05/22 06:02:44;;;;;;;19.95;11.35;;;;;;;26.62;40.55;98413.81;5093725;28;20032;-45
2023/05/22 06:05:10;;;;;;;17.40;11.15;;;;;;;27.18;39.70;98411.34;5091919;28;20028;-45
2023/05/22 06:07:39;;;;;;;14.13;10.20;;;;;;;27.37;39.07;98417.25;5093571;28;20096;-45
2023/05/22 06:10:08;;;;;;;17.92;12.82;;;;;;;27.43;38.68;98423.28;5093402;28;20036;-45
2023/05/22 06:12:34;;;;;;;14.45;10.57;;;;;;;27.90;38.40;98412.59;5093416;28;20020;-45
2023/05/22 06:14:59;;;;;;;19.20;11.25;;;;;;;28.78;37.39;98411.13;5093427;28;20034;-45
2023/05/22 06:17:26;;;;;;;16.30;11.55;;;;;;;29.55;35.71;98405.47;5093501;28;20042;-45
2023/05/22 06:19:51;;;;;;;14.75;10.63;;;;;;;29.97;35.46;98402.66;5092006;28;20024;-45
2023/05/22 06:22:17;;;;;;;14.85;9.90;;;;;;;30.78;34.18;98405.63;5093212;28;20076;-46
2023/05/22 06:24:43;;;;;;;11.15;10.07;;;;;;;31.37;32.11;98415.09;5093195;28;20509;-46
2023/05/22 06:27:08;;;;;;;13.43;11.98;;;;;;;31.26;32.10;98416.72;5093106;28;20024;-45
2023/05/22 06:29:34;;;;;;;12.23;10.98;;;;;;;31.14;32.50;98427.59;5093081;28;20032;-46
2023/05/22 06:32:00;;;;;;;16.58;10.70;;;;;;;31.44;33.19;98419.94;5091762;28;20089;-46
2023/05/22 06:34:26;;;;;;;11.35;10.25;;;;;;;32.29;31.07;98426.03;5092971;28;20104;-46
2023/05/22 06:36:52;;;;;;;12.77;11.05;;;;;;;32.57;30.33;98419.75;5091655;28;20035;-46
2023/05/22 06:39:18;;;;;;;15.45;14.00;;;;;;;32.76;30.41;98425.22;5091600;28;20028;-46
2023/05/22 06:41:44;;;;;;;15.90;13.23;;;;;;;33.02;29.22;98418.38;5092850;28;20032;-45
2023/05/22 06:44:11;;;;;;;17.33;12.82;;;;;;;33.22;29.16;98425.44;5092614;28;20054;-46
2023/05/22 06:46:36;;;;;;;17.27;10.70;;;;;;;33.66;29.32;98429.81;5091413;28;20405;-46
2023/05/22 06:49:03;;;;;;;15.38;11.98;;;;;;;33.77;28.84;98435.47;5091414;28;20032;-46
2023/05/22 06:51:28;;;;;;;15.82;10.73;;;;;;;33.51;29.36;98428.72;5092710;28;20103;-46
2023/05/22 06:53:55;;;;;;;12.48;11.25;;;;;;;33.45;29.15;98432.88;5091381;28;20111;-46
2023/05/22 06:56:21;;;;;;;14.57;10.68;;;;;;;33.88;29.54;98424.75;5092525;28;20032;-46
2023/05/22 06:58:47;;;;;;;20.73;10.85;;;;;;;34.42;28.43;98429.19;5091277;28;20031;-46
2023/05/22 07:01:13;;;;;;;15.75;11.40;;;;;;;34.69;28.01;98423.75;5091206;28;20032;-46
2023/05/22 07:03:38;;;;;;;18.33;11.02;;;;;;;35.03;27.79;98424.59;5091112;28;20077;-46
2023/05/22 07:06:04;;;;;;;18.88;11.32;;;;;;;35.35;27.26;98427.75;5092494;28;20089;-46
2023/05/22 07:08:30;;;;;;;30.58;12.73;;;;;;;35.91;27.15;98431.47;5092664;28;20050;-46
2023/05/22 07:10:56;;;;;;;21.15;11.27;;;;;;;36.35;26.10;98427.97;5090976;28;20020;-46
2023/05/22 07:13:23;;;;;;;16.92;10.25;;;;;;;36.86;25.77;98431.06;5092336;28;20027;-46
2023/05/22 07:15:49;;;;;;;14.98;10.73;;;;;;;37.14;25.39;98427.69;5090178;28;20028;-46
2023/05/22 07:18:15;;;;;;;14.63;10.40;;;;;;;37.26;25.45;98429.31;5092234;28;20038;-46
2023/05/22 07:20:41;;;;;;;27.73;10.23;;;;;;;37.15;25.58;98432.00;5090821;28;20432;-46
2023/05/22 07:23:08;;;;;;;13.38;10.57;;;;;;;36.98;25.29;98431.50;5092152;28;20027;-46
2023/05/22 07:25:33;;;;;;;18.30;10.60;;;;;;;36.86;25.58;98433.78;5090762;28;20024;-46
2023/05/22 07:28:00;;;;;;;27.95;11.63;;;;;;;36.76;25.52;98436.09;5090784;28;20401;-46
2023/05/22 07:30:26;;;;;;;20.35;10.55;;;;;;;36.44;26.17;98435.84;5091983;28;20020;-46
2023/05/22 07:32:52;;;;;;;11.38;9.32;;;;;;;36.32;26.66;98436.13;5090833;28;20031;-46
2023/05/22 07:35:18;;;;;;;15.75;10.73;;;;;;;36.27;26.86;98436.50;5090670;28;20402;-46
2023/05/22 07:37:43;;;;;;;16.42;11.65;;;;;;;36.43;26.68;98439.75;5090669;28;20023;-46
2023/05/22 07:40:10;;;;;;;21.70;11.80;;;;;;;36.30;26.98;98441.19;5090660;28;20482;-46
2023/05/22 07:42:36;;;;;;;18.63;10.85;;;;;;;35.98;26.82;98442.47;5090695;28;20027;-46
2023/05/22 07:45:02;;;;;;;16.05;11.95;;;;;;;35.54;27.55;98435.00;5091745;28;20055;-46
2023/05/22 07:47:28;;;;;;;16.60;11.23;;;;;;;35.63;27.12;98437.41;5091870;28;20020;-46
2023/05/22 07:49:54;;;;;;;17.85;10.90;;;;;;;36.15;27.03;98440.31;5091727;28;20024;-46
2023/05/22 07:52:20;;;;;;;20.45;10.60;;;;;;;36.62;26.50;98437.91;5090520;28;20016;-46
2023/05/22 07:54:46;;;;;;;15.68;10.52;;;;;;;36.85;26.26;98432.22;5091743;28;20511;-46
2023/05/22 07:57:12;;;;;;;15.90;10.25;;;;;;;37.46;25.15;98440.72;5073848;28;20111;-46
2023/05/22 07:59:37;;;;;;;24.60;10.82;;;;;;;37.75;24.77;98434.16;5090442;28;20024;-46
2023/05/22 08:02:03;;;;;;;15.43;10.23;;;;;;;38.26;24.38;98440.47;5091676;28;20021;-46
2023/05/22 08:04:29;;;;;;;24.85;12.07;;;;;;;38.81;23.72;98435.72;5090635;28;20428;-46
2023/05/22 08:06:56;;;;;;;11.80;10.80;;;;;;;38.97;23.33;98438.84;5091960;28;20032;-46
2023/05/22 08:09:21;;;;;;;16.30;11.27;;;;;;;38.51;23.93;98445.97;5091581;28;20080;-47
2023/05/22 08:11:47;;;;;;;15.88;11.25;;;;;;;38.41;24.05;98443.22;5090334;28;20036;-46
2023/05/22 08:14:13;;;;;;;11.55;10.32;;;;;;;39.03;23.51;98434.50;5091689;28;20024;-47
2023/05/22 08:16:39;;;;;;;12.60;10.20;;;;;;;39.73;22.62;98434.56;5091537;28;20046;-48
2023/05/22 08:19:06;;;;;;;14.65;10.77;;;;;;;40.33;22.21;98429.84;5090503;28;20020;-48
2023/05/22 08:21:36;;;;;;;26.60;12.90;;;;;;;40.97;21.50;98438.63;5090207;28;20028;-48
2023/05/22 08:24:02;;;;;;;19.15;10.55;;;;;;;41.55;20.82;98435.16;5091408;28;20021;-48
2023/05/22 08:26:28;;;;;;;11.20;9.00;;;;;;;42.38;19.92;98429.94;5090396;28;20024;-49
2023/05/22 08:28:54;;;;;;;12.05;9.77;;;;;;;42.99;19.88;98431.59;5095273;28;20035;-48
2023/05/22 08:31:20;;;;;;;23.73;10.77;;;;;;;43.00;19.13;98427.63;5094338;28;20393;-48
2023/05/22 08:33:45;;;;;;;12.43;9.88;;;;;;;42.70;19.50;98426.63;5095354;28;20031;-48
2023/05/22 08:39:33;;;;;;;21.52;10.45;;;;;;;41.47;21.12;98435.25;5095528;28;20024;-48
2023/05/22 08:41:59;;;;;;;22.17;9.77;;;;;;;41.63;20.55;98431.91;5095451;28;20032;-48
2023/05/22 08:44:27;;;;;;;40.78;11.88;;;;;;;41.96;20.22;98431.41;5094850;28;20059;-48
2023/05/22 08:46:55;;;;;;;12.40;8.63;;;;;;;42.59;19.75;98428.03;5095011;28;20068;-48
2023/05/22 08:49:23;;;;;;;15.23;9.95;;;;;;;43.35;18.86;98421.81;5093996;28;20055;-48
2023/05/22 08:51:58;;;;;;;23.30;10.75;;;;;;;43.02;19.34;98427.97;5093952;28;20028;-48
2023/05/22 08:54:27;;;;;;;27.90;11.45;;;;;;;42.65;19.42;98431.84;5077635;28;20024;-49
2023/05/22 08:56:56;;;;;;;17.27;9.48;;;;;;;42.95;19.25;98411.56;5095217;28;20485;-48
2023/05/22 08:59:25;;;;;;;50.40;13.30;;;;;;;43.28;19.18;98420.75;5077036;28;20028;-49
2023/05/22 09:01:52;;;;;;;20.88;10.80;;;;;;;42.52;19.79;98417.88;5093497;28;20137;-49
2023/05/22 09:04:22;;;;;;;21.15;11.00;;;;;;;42.72;19.44;98428.16;5093484;28;20028;-48
2023/05/22 09:06:49;;;;;;;26.63;11.60;;;;;;;42.56;19.74;98421.38;5094955;28;20500;-48
2023/05/22 09:09:46;;;;;;;21.80;9.50;;;;;;;43.00;19.64;98413.81;5094604;28;20030;-48
2023/05/22 09:12:12;;;;;;;40.60;10.63;;;;;;;43.44;18.88;98411.72;5094644;28;20024;-48
2023/05/22 09:14:42;;;;;;;24.55;10.50;;;;;;;43.02;19.06;98414.16;5093245;28;20024;-49
2023/05/22 09:17:30;;;;;;;14.23;8.80;;;;;;;42.22;19.39;98422.34;5094526;28;20020;-48
2023/05/22 09:19:59;;;;;;;30.92;9.68;;;;;;;42.27;19.67;98412.81;5094520;28;20023;-48
2023/05/22 09:22:36;;;;;;;20.27;9.95;;;;;;;41.25;20.73;98423.75;5094378;28;20073;-48
2023/05/22 09:25:03;;;;;;;22.80;9.23;;;;;;;40.06;21.85;98428.84;5094686;28;20028;-48
2023/05/22 09:27:28;;;;;;;23.77;10.98;;;;;;;38.51;23.33;98426.75;5094364;28;20024;-48
2023/05/22 09:29:55;;;;;;;24.55;10.93;;;;;;;37.75;24.74;98431.44;5092897;28;20032;-48
2023/05/22 09:32:22;;;;;;;25.02;12.85;;;;;;;37.35;25.63;98435.22;5093175;28;20027;-48
2023/05/22 09:34:48;;;;;;;20.35;12.52;;;;;;;38.25;24.15;98430.69;5094229;28;20047;-48
2023/05/22 09:37:15;;;;;;;34.25;16.05;;;;;;;39.78;22.79;98427.84;5076176;28;20047;-48
2023/05/22 09:39:45;;;;;;;29.20;12.10;;;;;;;39.61;22.51;98423.28;5108946;28;20069;-48
2023/05/22 09:42:14;;;;;;;22.38;12.13;;;;;;;38.57;23.90;98421.66;5094024;28;20103;-48
2023/05/22 09:44:43;;;;;;;18.65;13.30;;;;;;;37.52;24.66;98422.75;5092649;28;20101;-48
2023/05/22 09:47:11;;;;;;;18.10;11.50;;;;;;;38.07;24.90;98416.19;5094124;28;20116;-48
2023/05/22 09:49:44;;;;;;;20.17;11.48;;;;;;;39.15;23.32;98425.03;5094000;28;20493;-48
2023/05/22 09:52:13;;;;;;;59.58;14.85;;;;;;;38.23;24.66;98421.28;5092842;28;20035;-48
2023/05/22 09:55:04;;;;;;;32.85;14.40;;;;;;;36.68;25.76;98418.06;5093770;28;20051;-48
2023/05/22 09:57:35;;;;;;;23.48;12.85;;;;;;;35.11;27.83;98418.06;5093805;28;20035;-46
2023/05/22 10:00:08;;;;;;;35.60;15.80;;;;;;;33.92;29.43;98418.22;5092435;28;20044;-46
2023/05/22 10:02:36;;;;;;;21.55;18.95;;;;;;;33.96;29.98;98421.78;5093707;28;20055;-46
2023/05/22 10:05:08;;;;;;;20.10;12.63;;;;;;;35.47;28.36;98418.53;5092308;28;20532;-46
2023/05/22 10:07:52;;;;;;;14.52;11.02;;;;;;;37.30;25.96;98410.94;5093584;28;20028;-46
2023/05/22 10:10:21;;;;;;;14.88;9.63;;;;;;;38.96;23.87;98409.81;5093456;28;20020;-48
2023/05/22 10:12:55;;;;;;;11.18;8.93;;;;;;;39.68;22.88;98415.78;5092135;28;20059;-48
2023/05/22 10:15:21;;;;;;;11.65;8.30;;;;;;;39.03;23.24;98409.81;5093402;28;20079;-48
2023/05/22 10:17:48;;;;;;;13.10;8.82;;;;;;;38.57;23.37;98413.44;5093340;28;20486;-48
2023/05/22 10:20:15;;;;;;;14.45;8.13;;;;;;;37.11;24.83;98412.84;5093266;28;20028;-48
2023/05/22 10:22:42;;;;;;;12.90;8.20;;;;;;;35.72;26.29;98407.13;5091942;28;20085;-47
2023/05/22 10:25:08;;;;;;;12.57;8.93;;;;;;;35.58;27.17;98413.19;5075018;28;20024;-45
2023/05/22 10:27:34;;;;;;;22.13;8.13;;;;;;;35.40;27.13;98416.50;5091896;28;20115;-46
2023/05/22 10:30:15;;;;;;;9.57;7.30;;;;;;;36.67;25.73;98394.63;5091729;28;20103;-46
2023/05/22 10:32:50;;;;;;;15.30;7.75;;;;;;;38.00;24.83;98399.75;5093113;28;20048;-49
2023/05/22 10:35:34;;;;;;;14.27;6.30;;;;;;;39.24;22.87;98397.16;5091701;28;20541;-48
2023/05/22 10:38:38;;;;;;;10.05;6.85;;;;;;;40.54;21.47;98403.31;5074873;28;20069;-48
2023/05/22 10:41:04;;;;;;;12.90;7.43;;;;;;;40.81;21.13;98389.69;5093034;28;20024;-49
2023/05/22 10:43:33;;;;;;;8.10;6.95;;;;;;;41.01;20.64;98395.34;5091528;28;20305;-48
2023/05/22 10:46:05;;;;;;;10.48;6.90;;;;;;;41.71;19.96;98394.00;5092673;28;20048;-48
2023/05/22 10:48:47;;;;;;;7.05;6.32;;;;;;;40.39;20.96;98394.44;5091460;28;20043;-48
2023/05/22 10:51:16;;;;;;;12.07;7.65;;;;;;;40.04;21.33;98390.00;5092699;28;20111;-49
2023/05/22 10:53:44;;;;;;;13.85;7.32;;;;;;;40.49;21.44;98390.78;5091426;28;20024;-48
2023/05/22 10:56:12;;;;;;;10.02;5.78;;;;;;;40.43;21.38;98375.91;5092645;28;20081;-48
2023/05/22 10:58:40;;;;;;;12.45;6.22;;;;;;;39.78;22.18;98377.63;5091325;28;20443;-48
2023/05/22 11:01:19;;;;;;;9.18;6.28;;;;;;;38.65;23.18;98379.31;5091524;28;20028;-48
2023/05/22 11:04:03;;;;;;;11.52;6.80;;;;;;;37.44;24.18;98380.88;5091254;28;20055;-48
2023/05/22 11:06:44;;;;;;;12.25;7.35;;;;;;;36.35;25.79;98384.25;5091148;28;20106;-48
2023/05/22 11:09:47;;;;;;;18.52;6.88;;;;;;;37.15;24.83;98375.31;5092407;28;20375;-48
2023/05/22 11:12:23;;;;;;;9.30;5.13;;;;;;;36.88;24.16;98383.00;5091047;28;20546;-48
2023/05/22 11:15:09;;;;;;;9.30;5.63;;;;;;;35.30;25.15;98376.25;5092345;28;20379;-46
2023/05/22 11:17:45;;;;;;;8.50;5.07;;;;;;;34.27;26.72;98360.06;5092357;28;20024;-45
2023/05/22 11:20:17;;;;;;;13.07;6.20;;;;;;;34.93;26.97;98366.06;5092184;28;20024;-46
2023/05/22 11:22:54;;;;;;;11.02;5.60;;;;;;;36.18;25.66;98360.31;5092237;28;20031;-46
2023/05/22 11:25:21;;;;;;;8.02;5.93;;;;;;;36.11;25.55;98362.97;5090856;28;20031;-45
2023/05/22 11:27:48;;;;;;;10.20;5.53;;;;;;;36.32;25.12;98357.69;5090821;28;20123;-45